WS36 weather

Swan Field
Almond, Wisconsin, United States

Public forecast

Using degrees Fahrenheit for public forecast. Weather courtesy of forecast.io.

Closest aviation weather report (METAR) to Swan Field

Closest report is Wautoma Municipal Airport, 14.9 nm (27.7 km) SSE. Retrieved 2020/02/26 21:56 UTC (33 minutes ago):

KY50 262156Z AUTO 33010G17KT 10SM -SN OVC042 M03/M10 A3012 RMK AO2 SNE09B52 SLP210 P0000 T10281100 FZRANO

Closest aviation forecast (TAF) to Swan Field

Closest forecast is Central Wisconsin Airport, 31.9 nm (59.2 km) NNW. Retrieved 2020/02/26 18:42 UTC (4 hours ago):

TAF KCWA 261740Z 2618/2718 35010G15KT P6SM SCT025 BKN035 TEMPO 2618/2619 BKN025 FM261900 34010G15KT P6SM -SHSN BKN022 FM262300 34008KT P6SM -SHSN SCT024 BKN030 FM270100 33006KT P6SM SCT024 SCT060 FM271600 31009G15KT P6SM SCT060